createdAt,value
2023-03-16T00:08:31.242Z,2.2
2023-03-16T00:18:31.304Z,2.2
2023-03-16T00:28:31.169Z,2.2
2023-03-16T00:38:31.146Z,2.3
2023-03-16T00:48:31.111Z,2.3
2023-03-16T00:58:31.106Z,2.3
2023-03-16T01:08:31.085Z,2.4
2023-03-16T01:18:31.065Z,2.4
2023-03-16T01:28:31.030Z,2.5
2023-03-16T01:38:31.085Z,2.5
2023-03-16T01:48:30.975Z,2.6
2023-03-16T01:58:30.943Z,2.6
2023-03-16T02:08:30.928Z,2.6
2023-03-16T02:18:30.899Z,2.6
2023-03-16T02:28:30.954Z,2.6
2023-03-16T02:38:30.881Z,2.6
2023-03-16T02:48:30.828Z,2.6
2023-03-16T02:58:30.804Z,2.5
2023-03-16T03:08:30.774Z,2.4
2023-03-16T03:18:30.753Z,2.4
2023-03-16T03:28:30.731Z,2.4
2023-03-16T03:38:30.731Z,2.4
2023-03-16T03:48:30.694Z,2.4
2023-03-16T03:58:30.663Z,2.3
2023-03-16T04:08:30.632Z,2.4
2023-03-16T04:18:30.618Z,2.4
2023-03-16T04:28:30.582Z,2.4
2023-03-16T04:38:30.561Z,2.3
2023-03-16T04:48:30.536Z,2.3
2023-03-16T04:58:30.514Z,2.3
2023-03-16T05:08:30.486Z,2.4
2023-03-16T05:18:30.462Z,2.5
2023-03-16T05:28:30.438Z,2.5
2023-03-16T05:38:30.417Z,2.6
2023-03-16T05:48:30.392Z,2.7
2023-03-16T05:58:30.360Z,2.8
2023-03-16T06:08:30.350Z,2.9
2023-03-16T06:18:30.335Z,3
2023-03-16T06:28:30.323Z,3.1
2023-03-16T06:38:30.301Z,3.2
2023-03-16T06:48:30.250Z,3.4
2023-03-16T06:58:30.255Z,3.5
2023-03-16T07:08:30.199Z,3.7
2023-03-16T07:18:30.306Z,3.8
2023-03-16T07:28:30.137Z,3.9
2023-03-16T07:38:30.210Z,4.1
2023-03-16T07:48:30.107Z,4.2
2023-03-16T07:58:30.070Z,4.4
2023-03-16T08:08:30.028Z,4.7
2023-03-16T08:18:30.002Z,4.9
2023-03-16T08:28:30.147Z,5.1
2023-03-16T08:38:29.955Z,5.3
2023-03-16T08:48:30.061Z,5.5
2023-03-16T08:58:29.980Z,5.7
2023-03-16T09:08:29.913Z,5.8
2023-03-16T09:18:29.834Z,6
2023-03-16T09:28:29.937Z,6.3
2023-03-16T09:38:29.966Z,6.5
2023-03-16T09:48:29.940Z,6.9
2023-03-16T09:58:29.920Z,7.6
2023-03-16T10:08:29.913Z,7.9
2023-03-16T10:18:29.850Z,8
2023-03-16T10:28:29.845Z,8
2023-03-16T10:38:29.782Z,7.9
2023-03-16T10:48:29.777Z,8.2
2023-03-16T10:58:29.626Z,8.3
2023-03-16T11:08:29.562Z,8.7
2023-03-16T11:18:29.695Z,9
2023-03-16T11:28:29.669Z,9.5
2023-03-16T11:38:29.639Z,9.5
2023-03-16T11:48:29.674Z,9.9
2023-03-16T11:58:29.455Z,9.8
2023-03-16T12:08:29.444Z,10.2
2023-03-16T12:18:29.502Z,10.5
2023-03-16T12:28:29.293Z,10.8
2023-03-16T12:38:29.277Z,10.9
2023-03-16T12:48:29.245Z,11
2023-03-16T12:58:29.198Z,11
2023-03-16T13:08:29.188Z,11.2
2023-03-16T13:18:29.153Z,11.2
2023-03-16T13:28:29.095Z,11.3
2023-03-16T13:38:29.084Z,11.3
2023-03-16T13:48:29.063Z,11.4
2023-03-16T13:58:29.027Z,11.7
2023-03-16T14:08:28.984Z,11.8
2023-03-16T14:18:28.946Z,11.9
2023-03-16T14:28:28.924Z,11.8
2023-03-16T14:38:28.881Z,11.9
2023-03-16T14:48:28.863Z,12.1
2023-03-16T14:58:28.825Z,12
2023-03-16T15:08:28.985Z,12.2
2023-03-16T15:18:28.760Z,12.1
2023-03-16T15:28:28.734Z,11.9
2023-03-16T15:38:28.693Z,12.1
2023-03-16T15:48:28.681Z,12.1
2023-03-16T15:58:28.813Z,11.9
2023-03-16T16:08:28.609Z,11.9
2023-03-16T16:18:28.574Z,11.6
2023-03-16T16:28:28.669Z,11.3
2023-03-16T16:38:28.648Z,11.1
2023-03-16T16:48:28.485Z,10.9
2023-03-16T16:58:28.446Z,10.7
2023-03-16T17:08:28.425Z,10.6
2023-03-16T17:18:28.416Z,10.5
2023-03-16T17:28:28.366Z,10.3
2023-03-16T17:38:28.396Z,10
2023-03-16T17:48:28.292Z,9.8
2023-03-16T17:58:28.259Z,9.6
2023-03-16T18:08:28.383Z,9.6
2023-03-16T18:18:28.233Z,9.4
2023-03-16T18:28:28.227Z,9.3
2023-03-16T18:38:28.139Z,9.2
2023-03-16T18:48:28.123Z,9.1
2023-03-16T18:58:28.103Z,9.1
2023-03-16T19:08:28.087Z,9
2023-03-16T19:18:28.019Z,8.9
2023-03-16T19:28:28.001Z,8.7
2023-03-16T19:38:27.984Z,8.7
2023-03-16T19:48:27.966Z,8.8
2023-03-16T19:58:27.913Z,8.7
2023-03-16T20:08:27.879Z,8.6
2023-03-16T20:18:27.863Z,8.5
2023-03-16T20:28:27.831Z,8.4
2023-03-16T20:38:27.854Z,8.3
2023-03-16T20:48:27.818Z,8.3
2023-03-16T20:58:27.724Z,8.2
2023-03-16T21:08:27.718Z,8.2
2023-03-16T21:18:27.669Z,8.2
2023-03-16T21:28:27.668Z,8.2
2023-03-16T21:38:27.612Z,8.1
2023-03-16T21:48:27.689Z,8.2
2023-03-16T21:58:27.609Z,8.1
2023-03-16T22:08:27.532Z,7.9
2023-03-16T22:18:27.488Z,7.9
2023-03-16T22:28:27.464Z,7.9
2023-03-16T22:38:27.490Z,7.9
2023-03-16T22:48:27.415Z,7.9
2023-03-16T22:58:27.375Z,8
2023-03-16T23:08:27.379Z,8.1
2023-03-16T23:18:27.333Z,8.1
2023-03-16T23:28:27.330Z,8
2023-03-16T23:38:27.262Z,8.1
2023-03-16T23:48:27.242Z,8.2
2023-03-16T23:58:27.219Z,8.3
